sensor_id;sensor_type;location;lat;lon;timestamp;P1;durP1;ratioP1;P2;durP2;ratioP2
22026;SDS011;11177;50.966;10.070;2024-02-04T00:00:36;2.50;;;1.95;;
22026;SDS011;11177;50.966;10.070;2024-02-04T00:03:04;2.47;;;2.05;;
22026;SDS011;11177;50.966;10.070;2024-02-04T00:05:31;5.43;;;2.05;;
22026;SDS011;11177;50.966;10.070;2024-02-04T00:07:58;2.78;;;1.80;;
22026;SDS011;11177;50.966;10.070;2024-02-04T00:10:25;1.98;;;1.77;;
22026;SDS011;11177;50.966;10.070;2024-02-04T00:12:53;2.40;;;1.80;;
22026;SDS011;11177;50.966;10.070;2024-02-04T00:15:20;1.70;;;1.60;;
22026;SDS011;11177;50.966;10.070;2024-02-04T00:17:47;2.22;;;1.85;;
22026;SDS011;11177;50.966;10.070;2024-02-04T00:20:14;2.22;;;1.95;;
22026;SDS011;11177;50.966;10.070;2024-02-04T00:22:41;2.42;;;2.10;;
22026;SDS011;11177;50.966;10.070;2024-02-04T00:25:08;2.60;;;2.20;;
22026;SDS011;11177;50.966;10.070;2024-02-04T00:27:38;2.40;;;2.20;;
22026;SDS011;11177;50.966;10.070;2024-02-04T00:30:06;3.88;;;2.25;;
22026;SDS011;11177;50.966;10.070;2024-02-04T00:32:33;2.60;;;2.40;;
22026;SDS011;11177;50.966;10.070;2024-02-04T00:35:00;3.28;;;2.72;;
22026;SDS011;11177;50.966;10.070;2024-02-04T00:37:27;2.55;;;2.35;;
22026;SDS011;11177;50.966;10.070;2024-02-04T00:39:54;2.88;;;2.50;;
22026;SDS011;11177;50.966;10.070;2024-02-04T00:42:22;2.67;;;2.30;;
22026;SDS011;11177;50.966;10.070;2024-02-04T00:44:48;3.08;;;2.67;;
22026;SDS011;11177;50.966;10.070;2024-02-04T00:47:15;3.47;;;2.80;;
22026;SDS011;11177;50.966;10.070;2024-02-04T00:49:42;3.17;;;2.58;;
22026;SDS011;11177;50.966;10.070;2024-02-04T00:52:09;3.35;;;2.58;;
22026;SDS011;11177;50.966;10.070;2024-02-04T00:54:36;3.92;;;3.00;;
22026;SDS011;11177;50.966;10.070;2024-02-04T00:57:03;4.30;;;3.47;;
22026;SDS011;11177;50.966;10.070;2024-02-04T00:59:30;3.25;;;2.95;;
22026;SDS011;11177;50.966;10.070;2024-02-04T01:01:57;3.22;;;2.92;;
22026;SDS011;11177;50.966;10.070;2024-02-04T01:04:25;5.15;;;3.30;;
22026;SDS011;11177;50.966;10.070;2024-02-04T01:06:52;2.72;;;2.45;;
22026;SDS011;11177;50.966;10.070;2024-02-04T01:09:27;5.05;;;3.00;;
22026;SDS011;11177;50.966;10.070;2024-02-04T01:11:56;3.42;;;2.92;;
22026;SDS011;11177;50.966;10.070;2024-02-04T01:14:23;4.30;;;3.42;;
22026;SDS011;11177;50.966;10.070;2024-02-04T01:16:49;4.43;;;3.38;;
22026;SDS011;11177;50.966;10.070;2024-02-04T01:19:16;4.03;;;3.10;;
22026;SDS011;11177;50.966;10.070;2024-02-04T01:21:44;3.10;;;2.80;;
22026;SDS011;11177;50.966;10.070;2024-02-04T01:24:11;3.97;;;3.10;;
22026;SDS011;11177;50.966;10.070;2024-02-04T01:26:38;3.72;;;3.28;;
22026;SDS011;11177;50.966;10.070;2024-02-04T01:29:05;3.65;;;2.90;;
22026;SDS011;11177;50.966;10.070;2024-02-04T01:31:32;3.28;;;2.97;;
22026;SDS011;11177;50.966;10.070;2024-02-04T01:33:59;3.10;;;2.72;;
22026;SDS011;11177;50.966;10.070;2024-02-04T01:36:26;3.25;;;2.75;;
22026;SDS011;11177;50.966;10.070;2024-02-04T01:38:53;3.30;;;3.00;;
22026;SDS011;11177;50.966;10.070;2024-02-04T01:41:20;3.42;;;2.60;;
22026;SDS011;11177;50.966;10.070;2024-02-04T01:43:47;3.00;;;2.67;;
22026;SDS011;11177;50.966;10.070;2024-02-04T01:46:14;3.55;;;2.60;;
22026;SDS011;11177;50.966;10.070;2024-02-04T01:48:41;2.88;;;2.60;;
22026;SDS011;11177;50.966;10.070;2024-02-04T01:51:08;2.72;;;2.53;;
22026;SDS011;11177;50.966;10.070;2024-02-04T01:53:35;2.50;;;2.30;;
22026;SDS011;11177;50.966;10.070;2024-02-04T01:56:03;2.58;;;2.22;;
22026;SDS011;11177;50.966;10.070;2024-02-04T01:58:30;3.15;;;2.25;;
22026;SDS011;11177;50.966;10.070;2024-02-04T02:03:27;3.65;;;2.63;;
22026;SDS011;11177;50.966;10.070;2024-02-04T02:05:55;2.50;;;2.17;;
22026;SDS011;11177;50.966;10.070;2024-02-04T02:08:22;2.85;;;2.40;;
22026;SDS011;11177;50.966;10.070;2024-02-04T02:10:49;2.70;;;2.38;;
22026;SDS011;11177;50.966;10.070;2024-02-04T02:13:22;3.80;;;2.33;;
22026;SDS011;11177;50.966;10.070;2024-02-04T02:15:56;2.60;;;2.38;;
22026;SDS011;11177;50.966;10.070;2024-02-04T02:18:31;3.13;;;2.38;;
22026;SDS011;11177;50.966;10.070;2024-02-04T02:24:10;2.38;;;2.17;;
22026;SDS011;11177;50.966;10.070;2024-02-04T02:26:44;2.53;;;2.03;;
22026;SDS011;11177;50.966;10.070;2024-02-04T02:29:11;2.95;;;2.40;;
22026;SDS011;11177;50.966;10.070;2024-02-04T02:31:39;3.30;;;2.72;;
22026;SDS011;11177;50.966;10.070;2024-02-04T02:34:14;3.38;;;2.40;;
22026;SDS011;11177;50.966;10.070;2024-02-04T02:37:04;3.20;;;2.47;;
22026;SDS011;11177;50.966;10.070;2024-02-04T02:42:35;2.65;;;2.30;;
22026;SDS011;11177;50.966;10.070;2024-02-04T02:45:02;2.60;;;2.40;;
22026;SDS011;11177;50.966;10.070;2024-02-04T02:47:30;2.42;;;2.22;;
22026;SDS011;11177;50.966;10.070;2024-02-04T02:49:59;6.05;;;2.45;;
22026;SDS011;11177;50.966;10.070;2024-02-04T02:52:27;3.33;;;2.05;;
22026;SDS011;11177;50.966;10.070;2024-02-04T02:54:54;3.95;;;2.22;;
22026;SDS011;11177;50.966;10.070;2024-02-04T02:57:21;2.72;;;2.00;;
22026;SDS011;11177;50.966;10.070;2024-02-04T02:59:48;1.92;;;1.70;;
22026;SDS011;11177;50.966;10.070;2024-02-04T03:02:14;2.78;;;1.88;;
22026;SDS011;11177;50.966;10.070;2024-02-04T03:04:41;1.88;;;1.75;;
22026;SDS011;11177;50.966;10.070;2024-02-04T03:07:08;1.60;;;1.50;;
22026;SDS011;11177;50.966;10.070;2024-02-04T03:09:35;1.60;;;1.50;;
22026;SDS011;11177;50.966;10.070;2024-02-04T03:12:02;3.25;;;1.50;;
22026;SDS011;11177;50.966;10.070;2024-02-04T03:14:30;1.52;;;1.42;;
22026;SDS011;11177;50.966;10.070;2024-02-04T03:16:59;1.65;;;1.15;;
22026;SDS011;11177;50.966;10.070;2024-02-04T03:19:25;1.63;;;1.25;;
22026;SDS011;11177;50.966;10.070;2024-02-04T03:21:52;1.15;;;1.08;;
22026;SDS011;11177;50.966;10.070;2024-02-04T03:24:19;1.48;;;1.05;;
22026;SDS011;11177;50.966;10.070;2024-02-04T03:26:46;1.38;;;0.90;;
22026;SDS011;11177;50.966;10.070;2024-02-04T03:29:13;1.00;;;1.00;;
22026;SDS011;11177;50.966;10.070;2024-02-04T03:31:40;1.02;;;0.93;;
22026;SDS011;11177;50.966;10.070;2024-02-04T03:34:06;1.27;;;1.17;;
22026;SDS011;11177;50.966;10.070;2024-02-04T03:36:36;0.90;;;0.90;;
22026;SDS011;11177;50.966;10.070;2024-02-04T03:39:04;1.17;;;1.08;;
22026;SDS011;11177;50.966;10.070;2024-02-04T03:41:30;1.85;;;0.82;;
22026;SDS011;11177;50.966;10.070;2024-02-04T03:43:57;0.93;;;0.90;;
22026;SDS011;11177;50.966;10.070;2024-02-04T03:46:24;1.88;;;0.93;;
22026;SDS011;11177;50.966;10.070;2024-02-04T03:48:51;0.95;;;0.90;;
22026;SDS011;11177;50.966;10.070;2024-02-04T03:51:18;1.75;;;1.00;;
22026;SDS011;11177;50.966;10.070;2024-02-04T03:53:46;1.48;;;0.80;;
22026;SDS011;11177;50.966;10.070;2024-02-04T03:56:13;2.75;;;0.85;;
22026;SDS011;11177;50.966;10.070;2024-02-04T03:58:40;0.80;;;0.80;;
22026;SDS011;11177;50.966;10.070;2024-02-04T04:01:10;2.78;;;0.80;;
22026;SDS011;11177;50.966;10.070;2024-02-04T04:03:42;1.05;;;0.90;;
22026;SDS011;11177;50.966;10.070;2024-02-04T04:06:10;2.55;;;1.13;;
22026;SDS011;11177;50.966;10.070;2024-02-04T04:08:37;1.25;;;0.80;;
22026;SDS011;11177;50.966;10.070;2024-02-04T04:11:06;1.00;;;0.90;;
22026;SDS011;11177;50.966;10.070;2024-02-04T04:13:34;0.95;;;0.80;;
22026;SDS011;11177;50.966;10.070;2024-02-04T04:16:02;1.40;;;0.70;;
22026;SDS011;11177;50.966;10.070;2024-02-04T04:18:30;0.82;;;0.80;;
22026;SDS011;11177;50.966;10.070;2024-02-04T04:20:57;0.70;;;0.70;;
22026;SDS011;11177;50.966;10.070;2024-02-04T04:23:24;0.73;;;0.73;;
22026;SDS011;11177;50.966;10.070;2024-02-04T04:25:51;0.60;;;0.60;;
22026;SDS011;11177;50.966;10.070;2024-02-04T04:28:17;0.65;;;0.65;;
22026;SDS011;11177;50.966;10.070;2024-02-04T04:30:44;2.15;;;0.60;;
22026;SDS011;11177;50.966;10.070;2024-02-04T04:33:11;0.63;;;0.50;;
22026;SDS011;11177;50.966;10.070;2024-02-04T04:35:39;0.60;;;0.60;;
22026;SDS011;11177;50.966;10.070;2024-02-04T04:38:06;0.50;;;0.50;;
22026;SDS011;11177;50.966;10.070;2024-02-04T04:40:33;0.40;;;0.40;;
22026;SDS011;11177;50.966;10.070;2024-02-04T04:42:59;1.35;;;0.55;;
22026;SDS011;11177;50.966;10.070;2024-02-04T04:45:26;0.63;;;0.47;;
22026;SDS011;11177;50.966;10.070;2024-02-04T04:47:53;0.30;;;0.30;;
22026;SDS011;11177;50.966;10.070;2024-02-04T04:50:20;0.38;;;0.38;;
22026;SDS011;11177;50.966;10.070;2024-02-04T04:52:48;0.50;;;0.30;;
22026;SDS011;11177;50.966;10.070;2024-02-04T04:55:15;0.80;;;0.30;;
22026;SDS011;11177;50.966;10.070;2024-02-04T04:57:42;0.30;;;0.30;;
22026;SDS011;11177;50.966;10.070;2024-02-04T05:00:09;0.40;;;0.25;;
22026;SDS011;11177;50.966;10.070;2024-02-04T05:02:41;0.35;;;0.35;;
22026;SDS011;11177;50.966;10.070;2024-02-04T05:05:10;0.28;;;0.28;;
22026;SDS011;11177;50.966;10.070;2024-02-04T05:07:38;0.20;;;0.20;;
22026;SDS011;11177;50.966;10.070;2024-02-04T05:10:06;0.40;;;0.40;;
22026;SDS011;11177;50.966;10.070;2024-02-04T05:12:34;0.10;;;0.10;;
22026;SDS011;11177;50.966;10.070;2024-02-04T05:15:03;0.38;;;0.20;;
22026;SDS011;11177;50.966;10.070;2024-02-04T05:17:31;2.03;;;0.73;;
22026;SDS011;11177;50.966;10.070;2024-02-04T05:19:58;3.90;;;2.17;;
22026;SDS011;11177;50.966;10.070;2024-02-04T05:22:25;0.68;;;0.45;;
22026;SDS011;11177;50.966;10.070;2024-02-04T05:24:52;4.07;;;1.60;;
22026;SDS011;11177;50.966;10.070;2024-02-04T05:27:19;1.65;;;1.00;;
22026;SDS011;11177;50.966;10.070;2024-02-04T05:29:46;0.93;;;0.68;;
22026;SDS011;11177;50.966;10.070;2024-02-04T05:32:13;0.63;;;0.50;;
22026;SDS011;11177;50.966;10.070;2024-02-04T05:34:40;0.65;;;0.40;;
22026;SDS011;11177;50.966;10.070;2024-02-04T05:37:07;0.55;;;0.40;;
22026;SDS011;11177;50.966;10.070;2024-02-04T05:39:34;1.50;;;0.40;;
22026;SDS011;11177;50.966;10.070;2024-02-04T05:42:00;0.32;;;0.32;;
22026;SDS011;11177;50.966;10.070;2024-02-04T05:44:27;0.50;;;0.50;;
22026;SDS011;11177;50.966;10.070;2024-02-04T05:46:54;0.40;;;0.30;;
22026;SDS011;11177;50.966;10.070;2024-02-04T05:49:21;1.13;;;0.25;;
22026;SDS011;11177;50.966;10.070;2024-02-04T05:51:48;0.22;;;0.10;;
22026;SDS011;11177;50.966;10.070;2024-02-04T05:54:15;0.20;;;0.20;;
22026;SDS011;11177;50.966;10.070;2024-02-04T05:56:42;0.20;;;0.20;;
22026;SDS011;11177;50.966;10.070;2024-02-04T05:59:09;1.08;;;0.28;;
22026;SDS011;11177;50.966;10.070;2024-02-04T06:01:36;1.08;;;0.30;;
22026;SDS011;11177;50.966;10.070;2024-02-04T06:04:03;0.95;;;0.20;;
22026;SDS011;11177;50.966;10.070;2024-02-04T06:06:30;0.35;;;0.10;;
22026;SDS011;11177;50.966;10.070;2024-02-04T06:08:57;0.30;;;0.10;;
22026;SDS011;11177;50.966;10.070;2024-02-04T06:11:25;0.85;;;0.20;;
22026;SDS011;11177;50.966;10.070;2024-02-04T06:13:51;0.10;;;0.10;;
22026;SDS011;11177;50.966;10.070;2024-02-04T06:16:18;0.28;;;0.22;;
22026;SDS011;11177;50.966;10.070;2024-02-04T06:18:45;0.10;;;0.10;;
22026;SDS011;11177;50.966;10.070;2024-02-04T06:21:12;0.20;;;0.13;;
22026;SDS011;11177;50.966;10.070;2024-02-04T06:23:39;1.45;;;0.20;;
22026;SDS011;11177;50.966;10.070;2024-02-04T06:26:06;1.00;;;0.20;;
22026;SDS011;11177;50.966;10.070;2024-02-04T06:28:33;0.10;;;0.10;;
22026;SDS011;11177;50.966;10.070;2024-02-04T06:31:00;0.35;;;0.20;;
22026;SDS011;11177;50.966;10.070;2024-02-04T06:33:27;0.17;;;0.17;;
22026;SDS011;11177;50.966;10.070;2024-02-04T06:35:54;0.65;;;0.20;;
22026;SDS011;11177;50.966;10.070;2024-02-04T06:38:21;0.20;;;0.20;;
22026;SDS011;11177;50.966;10.070;2024-02-04T06:40:48;0.30;;;0.30;;
22026;SDS011;11177;50.966;10.070;2024-02-04T06:43:15;0.22;;;0.22;;
22026;SDS011;11177;50.966;10.070;2024-02-04T06:45:41;0.30;;;0.30;;
22026;SDS011;11177;50.966;10.070;2024-02-04T06:48:08;0.50;;;0.20;;
22026;SDS011;11177;50.966;10.070;2024-02-04T06:50:36;0.90;;;0.30;;
22026;SDS011;11177;50.966;10.070;2024-02-04T06:53:04;0.25;;;0.22;;
22026;SDS011;11177;50.966;10.070;2024-02-04T06:55:30;0.30;;;0.30;;
22026;SDS011;11177;50.966;10.070;2024-02-04T06:57:57;0.30;;;0.30;;
22026;SDS011;11177;50.966;10.070;2024-02-04T07:00:24;0.45;;;0.40;;
22026;SDS011;11177;50.966;10.070;2024-02-04T07:02:51;0.98;;;0.25;;
22026;SDS011;11177;50.966;10.070;2024-02-04T07:05:18;0.10;;;0.10;;
22026;SDS011;11177;50.966;10.070;2024-02-04T07:07:45;0.20;;;0.20;;
22026;SDS011;11177;50.966;10.070;2024-02-04T07:10:12;0.13;;;0.13;;
22026;SDS011;11177;50.966;10.070;2024-02-04T07:12:39;0.10;;;0.10;;
22026;SDS011;11177;50.966;10.070;2024-02-04T07:15:06;0.10;;;0.10;;
22026;SDS011;11177;50.966;10.070;2024-02-04T07:17:33;1.23;;;0.10;;
22026;SDS011;11177;50.966;10.070;2024-02-04T07:20:00;0.30;;;0.10;;
22026;SDS011;11177;50.966;10.070;2024-02-04T07:22:27;0.00;;;0.00;;
22026;SDS011;11177;50.966;10.070;2024-02-04T07:24:54;0.00;;;0.00;;
22026;SDS011;11177;50.966;10.070;2024-02-04T07:27:21;0.25;;;0.20;;
22026;SDS011;11177;50.966;10.070;2024-02-04T07:29:48;0.40;;;0.40;;
22026;SDS011;11177;50.966;10.070;2024-02-04T07:32:15;1.65;;;0.30;;
22026;SDS011;11177;50.966;10.070;2024-02-04T07:34:42;0.10;;;0.10;;
22026;SDS011;11177;50.966;10.070;2024-02-04T07:37:09;0.85;;;0.17;;
22026;SDS011;11177;50.966;10.070;2024-02-04T07:39:38;0.10;;;0.10;;
22026;SDS011;11177;50.966;10.070;2024-02-04T07:42:04;0.05;;;0.05;;
22026;SDS011;11177;50.966;10.070;2024-02-04T07:44:31;0.10;;;0.10;;
22026;SDS011;11177;50.966;10.070;2024-02-04T07:46:58;0.10;;;0.10;;
22026;SDS011;11177;50.966;10.070;2024-02-04T07:49:25;1.00;;;0.47;;
22026;SDS011;11177;50.966;10.070;2024-02-04T07:51:52;0.82;;;0.50;;
22026;SDS011;11177;50.966;10.070;2024-02-04T07:54:19;2.45;;;0.57;;
22026;SDS011;11177;50.966;10.070;2024-02-04T07:56:46;2.15;;;0.85;;
22026;SDS011;11177;50.966;10.070;2024-02-04T07:59:13;0.82;;;0.82;;
22026;SDS011;11177;50.966;10.070;2024-02-04T08:01:40;1.10;;;1.00;;
22026;SDS011;11177;50.966;10.070;2024-02-04T08:04:07;1.48;;;0.85;;
22026;SDS011;11177;50.966;10.070;2024-02-04T08:06:37;0.88;;;0.88;;
22026;SDS011;11177;50.966;10.070;2024-02-04T08:09:05;1.88;;;1.42;;
22026;SDS011;11177;50.966;10.070;2024-02-04T08:11:33;2.72;;;1.70;;
22026;SDS011;11177;50.966;10.070;2024-02-04T08:14:00;2.15;;;1.40;;
22026;SDS011;11177;50.966;10.070;2024-02-04T08:16:27;2.15;;;1.63;;
22026;SDS011;11177;50.966;10.070;2024-02-04T08:18:54;3.60;;;1.80;;
22026;SDS011;11177;50.966;10.070;2024-02-04T08:21:21;2.38;;;2.17;;
22026;SDS011;11177;50.966;10.070;2024-02-04T08:23:48;2.17;;;1.90;;
22026;SDS011;11177;50.966;10.070;2024-02-04T08:26:15;2.65;;;2.00;;
22026;SDS011;11177;50.966;10.070;2024-02-04T08:28:42;2.28;;;2.03;;
22026;SDS011;11177;50.966;10.070;2024-02-04T08:31:09;3.60;;;2.15;;
22026;SDS011;11177;50.966;10.070;2024-02-04T08:33:36;1.95;;;1.85;;
22026;SDS011;11177;50.966;10.070;2024-02-04T08:36:03;2.20;;;2.00;;
22026;SDS011;11177;50.966;10.070;2024-02-04T08:38:31;2.20;;;2.00;;
22026;SDS011;11177;50.966;10.070;2024-02-04T08:40:58;5.22;;;3.55;;
22026;SDS011;11177;50.966;10.070;2024-02-04T08:43:25;2.53;;;2.20;;
22026;SDS011;11177;50.966;10.070;2024-02-04T08:45:52;2.45;;;2.25;;
22026;SDS011;11177;50.966;10.070;2024-02-04T08:48:19;2.80;;;1.92;;
22026;SDS011;11177;50.966;10.070;2024-02-04T08:50:46;4.47;;;2.13;;
22026;SDS011;11177;50.966;10.070;2024-02-04T08:53:13;2.50;;;2.05;;
22026;SDS011;11177;50.966;10.070;2024-02-04T08:55:40;2.28;;;2.00;;
22026;SDS011;11177;50.966;10.070;2024-02-04T08:58:07;3.17;;;2.17;;
22026;SDS011;11177;50.966;10.070;2024-02-04T09:00:34;2.20;;;2.00;;
22026;SDS011;11177;50.966;10.070;2024-02-04T09:03:02;5.03;;;2.50;;
22026;SDS011;11177;50.966;10.070;2024-02-04T09:05:29;3.72;;;3.10;;
22026;SDS011;11177;50.966;10.070;2024-02-04T09:07:55;3.15;;;2.70;;
22026;SDS011;11177;50.966;10.070;2024-02-04T09:10:22;2.95;;;2.33;;
22026;SDS011;11177;50.966;10.070;2024-02-04T09:12:49;3.83;;;3.10;;
22026;SDS011;11177;50.966;10.070;2024-02-04T09:15:16;2.60;;;2.40;;
22026;SDS011;11177;50.966;10.070;2024-02-04T09:17:44;2.75;;;2.05;;
22026;SDS011;11177;50.966;10.070;2024-02-04T09:20:11;14.32;;;2.35;;
22026;SDS011;11177;50.966;10.070;2024-02-04T09:22:38;2.20;;;2.00;;
22026;SDS011;11177;50.966;10.070;2024-02-04T09:25:06;2.13;;;1.92;;
22026;SDS011;11177;50.966;10.070;2024-02-04T09:27:33;1.85;;;1.67;;
22026;SDS011;11177;50.966;10.070;2024-02-04T09:30:00;2.20;;;2.00;;
22026;SDS011;11177;50.966;10.070;2024-02-04T09:32:28;1.77;;;1.50;;
22026;SDS011;11177;50.966;10.070;2024-02-04T09:34:55;1.98;;;1.70;;
22026;SDS011;11177;50.966;10.070;2024-02-04T09:37:22;2.17;;;1.67;;
22026;SDS011;11177;50.966;10.070;2024-02-04T09:39:49;1.50;;;1.40;;
22026;SDS011;11177;50.966;10.070;2024-02-04T09:42:20;1.50;;;1.40;;
22026;SDS011;11177;50.966;10.070;2024-02-04T09:44:51;1.52;;;1.25;;
22026;SDS011;11177;50.966;10.070;2024-02-04T09:47:17;1.02;;;1.02;;
22026;SDS011;11177;50.966;10.070;2024-02-04T09:49:44;2.35;;;1.40;;
22026;SDS011;11177;50.966;10.070;2024-02-04T09:52:12;2.28;;;1.60;;
22026;SDS011;11177;50.966;10.070;2024-02-04T09:54:50;1.73;;;1.63;;
22026;SDS011;11177;50.966;10.070;2024-02-04T09:57:29;1.45;;;1.27;;
22026;SDS011;11177;50.966;10.070;2024-02-04T09:59:57;2.05;;;1.02;;
22026;SDS011;11177;50.966;10.070;2024-02-04T10:02:24;3.55;;;1.00;;
22026;SDS011;11177;50.966;10.070;2024-02-04T10:04:52;1.15;;;1.00;;
22026;SDS011;11177;50.966;10.070;2024-02-04T10:07:19;1.45;;;1.35;;
22026;SDS011;11177;50.966;10.070;2024-02-04T10:09:46;0.90;;;0.90;;
22026;SDS011;11177;50.966;10.070;2024-02-04T10:12:13;0.80;;;0.75;;
22026;SDS011;11177;50.966;10.070;2024-02-04T10:14:41;1.30;;;0.98;;
22026;SDS011;11177;50.966;10.070;2024-02-04T10:17:07;1.95;;;1.10;;
22026;SDS011;11177;50.966;10.070;2024-02-04T10:19:34;2.65;;;1.45;;
22026;SDS011;11177;50.966;10.070;2024-02-04T10:22:01;1.17;;;0.95;;
22026;SDS011;11177;50.966;10.070;2024-02-04T10:24:29;3.70;;;1.63;;
22026;SDS011;11177;50.966;10.070;2024-02-04T10:26:57;2.33;;;1.25;;
22026;SDS011;11177;50.966;10.070;2024-02-04T10:29:24;1.77;;;1.05;;
22026;SDS011;11177;50.966;10.070;2024-02-04T10:31:55;1.20;;;0.65;;
22026;SDS011;11177;50.966;10.070;2024-02-04T10:34:23;0.60;;;0.40;;
22026;SDS011;11177;50.966;10.070;2024-02-04T10:36:52;0.20;;;0.20;;
22026;SDS011;11177;50.966;10.070;2024-02-04T10:39:19;0.28;;;0.22;;
22026;SDS011;11177;50.966;10.070;2024-02-04T10:41:49;0.65;;;0.52;;
22026;SDS011;11177;50.966;10.070;2024-02-04T10:44:22;0.65;;;0.30;;
22026;SDS011;11177;50.966;10.070;2024-02-04T10:46:50;0.73;;;0.40;;
22026;SDS011;11177;50.966;10.070;2024-02-04T10:49:18;0.95;;;0.80;;
22026;SDS011;11177;50.966;10.070;2024-02-04T10:51:46;0.68;;;0.40;;
22026;SDS011;11177;50.966;10.070;2024-02-04T10:54:15;0.70;;;0.57;;
22026;SDS011;11177;50.966;10.070;2024-02-04T10:56:44;1.70;;;0.90;;
22026;SDS011;11177;50.966;10.070;2024-02-04T10:59:11;0.60;;;0.60;;
22026;SDS011;11177;50.966;10.070;2024-02-04T11:01:40;1.48;;;0.40;;
22026;SDS011;11177;50.966;10.070;2024-02-04T11:04:10;0.77;;;0.60;;
22026;SDS011;11177;50.966;10.070;2024-02-04T11:06:40;2.05;;;0.52;;
22026;SDS011;11177;50.966;10.070;2024-02-04T11:09:11;0.80;;;0.50;;
22026;SDS011;11177;50.966;10.070;2024-02-04T11:11:38;0.82;;;0.65;;
22026;SDS011;11177;50.966;10.070;2024-02-04T11:14:08;0.43;;;0.43;;
22026;SDS011;11177;50.966;10.070;2024-02-04T11:22:09;0.73;;;0.40;;
22026;SDS011;11177;50.966;10.070;2024-02-04T11:24:53;0.30;;;0.30;;
22026;SDS011;11177;50.966;10.070;2024-02-04T11:27:37;0.55;;;0.35;;
22026;SDS011;11177;50.966;10.070;2024-02-04T11:30:05;1.40;;;0.90;;
22026;SDS011;11177;50.966;10.070;2024-02-04T11:32:34;0.88;;;0.85;;
22026;SDS011;11177;50.966;10.070;2024-02-04T11:35:02;1.40;;;0.70;;
22026;SDS011;11177;50.966;10.070;2024-02-04T11:37:34;0.55;;;0.55;;
22026;SDS011;11177;50.966;10.070;2024-02-04T11:40:03;0.60;;;0.40;;
22026;SDS011;11177;50.966;10.070;2024-02-04T11:42:31;1.35;;;0.50;;
22026;SDS011;11177;50.966;10.070;2024-02-04T11:45:08;0.50;;;0.50;;
22026;SDS011;11177;50.966;10.070;2024-02-04T11:47:36;0.73;;;0.50;;
22026;SDS011;11177;50.966;10.070;2024-02-04T11:50:04;1.08;;;0.60;;
22026;SDS011;11177;50.966;10.070;2024-02-04T11:52:32;2.70;;;0.70;;
22026;SDS011;11177;50.966;10.070;2024-02-04T11:54:59;0.32;;;0.32;;
22026;SDS011;11177;50.966;10.070;2024-02-04T11:57:26;0.73;;;0.40;;
22026;SDS011;11177;50.966;10.070;2024-02-04T11:59:54;0.88;;;0.88;;
22026;SDS011;11177;50.966;10.070;2024-02-04T12:02:24;2.85;;;1.85;;
22026;SDS011;11177;50.966;10.070;2024-02-04T12:04:51;8.65;;;4.28;;
22026;SDS011;11177;50.966;10.070;2024-02-04T12:07:18;4.28;;;2.63;;
22026;SDS011;11177;50.966;10.070;2024-02-04T12:09:46;1.90;;;1.63;;
22026;SDS011;11177;50.966;10.070;2024-02-04T12:12:14;0.65;;;0.65;;
22026;SDS011;11177;50.966;10.070;2024-02-04T12:14:41;4.88;;;0.55;;
22026;SDS011;11177;50.966;10.070;2024-02-04T12:17:10;0.50;;;0.50;;
22026;SDS011;11177;50.966;10.070;2024-02-04T12:19:37;0.80;;;0.77;;
22026;SDS011;11177;50.966;10.070;2024-02-04T12:22:10;0.70;;;0.70;;
22026;SDS011;11177;50.966;10.070;2024-02-04T12:24:41;1.20;;;1.10;;
22026;SDS011;11177;50.966;10.070;2024-02-04T12:27:08;0.90;;;0.60;;
22026;SDS011;11177;50.966;10.070;2024-02-04T12:29:35;1.63;;;0.90;;
22026;SDS011;11177;50.966;10.070;2024-02-04T12:32:02;1.52;;;0.80;;
22026;SDS011;11177;50.966;10.070;2024-02-04T12:34:30;0.80;;;0.75;;
22026;SDS011;11177;50.966;10.070;2024-02-04T12:36:59;1.35;;;0.75;;
22026;SDS011;11177;50.966;10.070;2024-02-04T12:39:29;0.80;;;0.80;;
22026;SDS011;11177;50.966;10.070;2024-02-04T12:41:59;0.95;;;0.60;;
22026;SDS011;11177;50.966;10.070;2024-02-04T12:44:26;0.70;;;0.70;;
22026;SDS011;11177;50.966;10.070;2024-02-04T12:46:53;0.70;;;0.70;;
22026;SDS011;11177;50.966;10.070;2024-02-04T12:49:20;1.30;;;0.70;;
22026;SDS011;11177;50.966;10.070;2024-02-04T12:51:51;0.75;;;0.75;;
22026;SDS011;11177;50.966;10.070;2024-02-04T12:54:22;0.60;;;0.60;;
22026;SDS011;11177;50.966;10.070;2024-02-04T12:56:53;1.83;;;0.80;;
22026;SDS011;11177;50.966;10.070;2024-02-04T12:59:27;0.68;;;0.68;;
22026;SDS011;11177;50.966;10.070;2024-02-04T13:01:58;2.47;;;0.70;;
22026;SDS011;11177;50.966;10.070;2024-02-04T13:04:26;0.85;;;0.70;;
22026;SDS011;11177;50.966;10.070;2024-02-04T13:06:53;1.98;;;1.00;;
22026;SDS011;11177;50.966;10.070;2024-02-04T13:09:20;2.05;;;1.33;;
22026;SDS011;11177;50.966;10.070;2024-02-04T13:11:48;1.60;;;1.50;;
22026;SDS011;11177;50.966;10.070;2024-02-04T13:14:15;1.38;;;1.00;;
22026;SDS011;11177;50.966;10.070;2024-02-04T13:16:42;0.90;;;0.90;;
22026;SDS011;11177;50.966;10.070;2024-02-04T13:19:09;0.70;;;0.70;;
22026;SDS011;11177;50.966;10.070;2024-02-04T13:21:36;0.90;;;0.70;;
22026;SDS011;11177;50.966;10.070;2024-02-04T13:24:03;0.85;;;0.85;;
22026;SDS011;11177;50.966;10.070;2024-02-04T13:26:30;2.65;;;1.10;;
22026;SDS011;11177;50.966;10.070;2024-02-04T13:28:57;1.25;;;0.80;;
22026;SDS011;11177;50.966;10.070;2024-02-04T13:31:24;1.92;;;1.10;;
22026;SDS011;11177;50.966;10.070;2024-02-04T13:33:52;0.93;;;0.85;;
22026;SDS011;11177;50.966;10.070;2024-02-04T13:36:19;0.50;;;0.50;;
22026;SDS011;11177;50.966;10.070;2024-02-04T13:38:46;1.20;;;0.70;;
22026;SDS011;11177;50.966;10.070;2024-02-04T13:41:13;1.70;;;0.70;;
22026;SDS011;11177;50.966;10.070;2024-02-04T13:43:40;0.45;;;0.45;;
22026;SDS011;11177;50.966;10.070;2024-02-04T13:46:07;1.38;;;0.57;;
22026;SDS011;11177;50.966;10.070;2024-02-04T13:48:34;0.88;;;0.60;;
22026;SDS011;11177;50.966;10.070;2024-02-04T13:51:01;0.85;;;0.50;;
22026;SDS011;11177;50.966;10.070;2024-02-04T13:53:28;0.70;;;0.70;;
22026;SDS011;11177;50.966;10.070;2024-02-04T13:55:57;0.85;;;0.80;;
22026;SDS011;11177;50.966;10.070;2024-02-04T13:58:25;0.50;;;0.50;;
22026;SDS011;11177;50.966;10.070;2024-02-04T14:00:53;2.33;;;0.85;;
22026;SDS011;11177;50.966;10.070;2024-02-04T14:03:20;0.60;;;0.60;;
22026;SDS011;11177;50.966;10.070;2024-02-04T14:05:47;0.50;;;0.50;;
22026;SDS011;11177;50.966;10.070;2024-02-04T14:08:14;0.75;;;0.70;;
22026;SDS011;11177;50.966;10.070;2024-02-04T14:10:40;1.00;;;0.80;;
22026;SDS011;11177;50.966;10.070;2024-02-04T14:13:07;2.28;;;1.38;;
22026;SDS011;11177;50.966;10.070;2024-02-04T14:15:36;2.30;;;1.20;;
22026;SDS011;11177;50.966;10.070;2024-02-04T14:18:04;2.42;;;1.20;;
22026;SDS011;11177;50.966;10.070;2024-02-04T14:20:31;1.02;;;1.00;;
22026;SDS011;11177;50.966;10.070;2024-02-04T14:22:58;1.00;;;0.88;;
22026;SDS011;11177;50.966;10.070;2024-02-04T14:25:25;3.30;;;0.80;;
22026;SDS011;11177;50.966;10.070;2024-02-04T14:27:56;2.25;;;0.80;;
22026;SDS011;11177;50.966;10.070;2024-02-04T14:30:23;3.92;;;0.90;;
22026;SDS011;11177;50.966;10.070;2024-02-04T14:32:50;0.80;;;0.80;;
22026;SDS011;11177;50.966;10.070;2024-02-04T14:35:17;0.70;;;0.70;;
22026;SDS011;11177;50.966;10.070;2024-02-04T14:37:44;1.35;;;1.00;;
22026;SDS011;11177;50.966;10.070;2024-02-04T14:40:11;0.80;;;0.80;;
22026;SDS011;11177;50.966;10.070;2024-02-04T14:42:38;1.58;;;0.90;;
22026;SDS011;11177;50.966;10.070;2024-02-04T14:45:08;0.90;;;0.80;;
22026;SDS011;11177;50.966;10.070;2024-02-04T14:47:38;0.70;;;0.70;;
22026;SDS011;11177;50.966;10.070;2024-02-04T14:50:05;0.80;;;0.60;;